Impacts METAR Board
IDs:

KPHL - Philadelphia Intl, PA, US

Updated at: 0700 UTC 24 Sep 2018
Potential Impact None Slight Moderate High
Time 23/19Z 23/20Z 23/21Z 23/22Z 23/23Z 24/00Z 24/01Z 24/02Z 24/03Z 24/04Z 24/05Z 24/06Z 24/07Z
Temp61 62 62 62 61 60 60 61 61 61 61 61 61
Dewpt59 59 59 60 59 59 59 60 60 60 60 60 60
Altim30.21 30.22 30.22 30.23 30.24 30.25 30.27 30.27 30.28 30.29 30.29 30.30 30.29
VIS4 10 10 10 8 6 4 4 4 6 6 10 10
CIG60 15 16 15 13 16 28 7 14 7 9 21 30
CoverOVCOVCOVCOVCOVCOVCOVCOVCOVCOVCOVCOVCOVC
FltCatMVFRMVFRMVFRMVFRMVFRMVFRMVFRIFRMVFRIFRIFRMVFRMVFR
WXRA BR-RA---RA-RA-RA BR-RA BR-RA BR-RA BR-RA BR-RA BR-RA--
WDir4035036020605050305050606050
WSpd5 7 8 5 7 6 7 6 6 6 5 5 6
WGst-- -- -- -- -- -- -- -- 14 -- -- -- --
Raw hourly METARs
KPHL 231854Z 04005KT 4SM RA BR SCT008 BKN060 OVC110 16/15 A3021 RMK AO2 SLP229 P0009 T01610150 $
KPHL 231958Z 35007KT 10SM -RA SCT010 BKN015 OVC065 17/15 A3022 RMK AO2 P0000 T01670150 $
KPHL 232054Z 36008KT 10SM SCT010 BKN016 OVC065 17/15 A3022 RMK AO2 RAE06B34E52 SLP234 P0000 60010 T01670150 53001 $
KPHL 232154Z 02005KT 10SM -RA FEW010 OVC015 17/16 A3023 RMK AO2 RAB24 SLP234 P0000 T01670156 $
KPHL 232254Z 06007KT 020V130 8SM -RA FEW010 OVC013 16/15 A3024 RMK AO2 SLP239 P0002 T01610150 $
KPHL 232354Z 05006KT 6SM -RA BR FEW010 BKN016 OVC028 16/15 A3025 RMK AO2 SLP243 P0007 60019 T01560150 10167 20156 53009 $
KPHL 240059Z 05007KT 020V100 4SM -RA BR FEW007 BKN028 OVC055 16/15 A3027 RMK AO2 P0000 T01560150 $
KPHL 240154Z 03006KT 4SM -RA BR BKN007 BKN011 OVC028 16/16 A3027 RMK AO2 SLP250 P0009 T01610156 $
KPHL 240254Z 05006G14KT 4SM -RA BR SCT007 BKN014 OVC028 16/16 A3028 RMK AO2 SLP254 P0007 60022 T01610156 51010 $
KPHL 240354Z 05006KT 6SM -RA BR BKN007 BKN014 OVC022 16/16 A3029 RMK AO2 SLP257 P0006 T01610156 $
KPHL 240454Z COR 06005KT 6SM -RA BR BKN009 OVC017 16/16 A3029 RMK AO2 SLP256 P0003 T01610156 401720150 $
KPHL 240554Z 06005KT 10SM -RA SCT009 BKN021 OVC040 16/16 A3030 RMK AO2 RAE39B54 SLP258 P0002 60033 T01610156 10167 20156 51004 $
KPHL 240703Z 05006KT 10SM FEW020 BKN030 OVC045 16/16 A3029 RMK AO2 T01610156 $



Page loaded:  07:20 UTC  |   12:20 AM Pacific  |   01:20 AM Mountain  |   02:20 AM Central  |   03:20 AM Eastern

 

ADVISORIES

FORECASTS

FORECASTS

OBSERVATIONS

USER TOOLS

ABOUT US